Time;durP1;ratioP1;P1;durP2;ratioP2;P2;SDS_P1;SDS_P2;PMS_P1;PMS_P2;Temp;Humidity;BMP_temperature;BMP_pressure;BME280_temperature;BME280_humidity;BME280_pressure;Samples;Min_cycle;Max_cycle;Signal;HPM_P1;HPM_P2
2021/09/16 00:00:59;;;;;;;13.10;8.45;;;538.20;1792.00;;;;;;4895437;29;20036;-78
2021/09/16 00:03:25;;;;;;;17.30;9.13;;;538.10;1792.00;;;;;;4897024;29;20025;-81
2021/09/16 00:05:51;;;;;;;20.25;8.75;;;538.10;1792.00;;;;;;4893058;29;20032;-85
2021/09/16 00:08:17;;;;;;;21.42;9.60;;;538.20;1766.40;;;;;;4898508;29;20043;-78
2021/09/16 00:10:43;;;;;;;23.08;9.27;;;538.20;1766.40;;;;;;4893931;29;20048;-91
2021/09/16 00:13:09;;;;;;;17.20;9.88;;;537.90;1792.00;;;;;;4917392;29;20036;-83
2021/09/16 00:15:34;;;;;;;21.45;9.85;;;538.00;1817.60;;;;;;4915447;29;20029;-83
2021/09/16 00:18:00;;;;;;;19.80;10.73;;;538.10;1792.00;;;;;;4907434;29;20075;-87
2021/09/16 00:20:27;;;;;;;16.85;9.10;;;538.10;1792.00;;;;;;4908853;29;20029;-81
2021/09/16 00:22:53;;;;;;;19.27;10.52;;;538.00;1817.60;;;;;;4889717;29;20088;-84
2021/09/16 00:25:18;;;;;;;15.52;11.52;;;537.90;1792.00;;;;;;4892448;29;20032;-83
2021/09/16 00:27:44;;;;;;;21.35;12.07;;;537.80;1817.60;;;;;;4908317;29;20028;-81
2021/09/16 00:30:11;;;;;;;25.00;14.52;;;537.60;1843.20;;;;;;4910499;29;20060;-81
2021/09/16 00:32:37;;;;;;;28.58;17.85;;;512.90;1817.60;;;;;;4892390;29;20047;-83
2021/09/16 00:35:05;;;;;;;28.35;19.13;;;512.70;1817.60;;;;;;4890653;29;20242;-79
2021/09/16 00:37:31;;;;;;;28.60;21.58;;;512.70;1817.60;;;;;;4906083;29;20032;-80
2021/09/16 00:39:56;;;;;;;37.20;23.02;;;512.60;1843.20;;;;;;4900018;29;20123;-87
2021/09/16 00:42:22;;;;;;;31.50;22.77;;;512.50;1843.20;;;;;;4893154;29;20124;-83
2021/09/16 00:44:48;;;;;;;31.40;23.33;;;512.20;1868.80;;;;;;4891888;29;20439;-84
2021/09/16 00:47:16;;;;;;;39.03;24.23;;;512.20;1868.80;;;;;;4910730;29;20550;-79
2021/09/16 00:49:44;;;;;;;32.88;23.70;;;512.10;1894.40;;;;;;4902407;29;20080;-79
2021/09/16 00:52:11;;;;;;;33.72;23.88;;;512.20;1894.40;;;;;;4905145;29;20028;-78
2021/09/16 00:54:39;;;;;;;36.38;25.00;;;512.10;1894.40;;;;;;4904326;29;20016;-81
2021/09/16 00:57:05;;;;;;;42.08;27.88;;;512.20;1894.40;;;;;;4908247;29;20043;-83
2021/09/16 00:59:33;;;;;;;41.75;27.00;;;512.30;1894.40;;;;;;4907515;29;20024;-84
2021/09/16 01:01:59;;;;;;;39.85;28.92;;;512.20;1894.40;;;;;;4899525;29;20502;-79
2021/09/16 01:04:26;;;;;;;42.45;28.83;;;512.20;1894.40;;;;;;4906538;29;20042;-79
2021/09/16 01:06:52;;;;;;;47.95;29.90;;;512.20;1894.40;;;;;;4908201;29;20027;-79
2021/09/16 01:09:18;;;;;;;46.38;33.95;;;512.10;1894.40;;;;;;4904999;29;20029;-79
2021/09/16 01:11:44;;;;;;;45.25;33.05;;;512.10;1920.00;;;;;;4908007;29;20051;-79
2021/09/16 01:14:10;;;;;;;42.83;32.42;;;487.30;1920.00;;;;;;4908437;29;20012;-83
2021/09/16 01:16:36;;;;;;;45.03;33.35;;;487.30;1945.60;;;;;;4908122;29;20530;-79
2021/09/16 01:19:03;;;;;;;41.58;33.20;;;487.10;1945.60;;;;;;4907307;29;20068;-81
2021/09/16 01:21:28;;;;;;;47.70;34.28;;;487.00;1971.20;;;;;;4890904;29;20163;-79
2021/09/16 01:23:54;;;;;;;52.80;33.92;;;486.90;1971.20;;;;;;4916114;29;20083;-82
2021/09/16 01:26:20;;;;;;;47.40;33.72;;;486.80;1971.20;;;;;;4919182;29;20467;-78
2021/09/16 01:28:46;;;;;;;50.33;33.25;;;486.90;1971.20;;;;;;4899256;29;20028;-79
2021/09/16 01:31:11;;;;;;;46.03;33.42;;;486.80;1971.20;;;;;;4916486;29;20032;-83
2021/09/16 01:33:37;;;;;;;46.10;32.85;;;486.80;1971.20;;;;;;4922314;29;20052;-82
2021/09/16 01:36:11;;;;;;;42.67;33.20;;;486.80;1971.20;;;;;;4933307;29;20063;-83
2021/09/16 01:38:37;;;;;;;43.05;32.42;;;486.70;1996.80;;;;;;4929851;29;20020;-83
2021/09/16 01:41:03;;;;;;;49.25;34.58;;;486.60;2022.40;;;;;;4929498;29;20863;-79
2021/09/16 01:43:29;;;;;;;44.75;35.00;;;486.50;2022.40;;;;;;4912267;29;20040;-78
2021/09/16 01:45:54;;;;;;;47.05;35.10;;;486.50;2022.40;;;;;;4901929;29;20493;-77
2021/09/16 01:48:21;;;;;;;41.10;32.75;;;486.50;2022.40;;;;;;4915722;29;20024;-79
2021/09/16 01:50:48;;;;;;;45.67;33.58;;;486.50;2022.40;;;;;;4890222;29;20039;-80
2021/09/16 01:53:14;;;;;;;47.42;32.25;;;486.50;2022.40;;;;;;4904771;29;20028;-80
2021/09/16 01:55:39;;;;;;;39.97;29.95;;;486.50;2022.40;;;;;;4889139;29;20031;-78
2021/09/16 01:58:05;;;;;;;42.72;27.88;;;486.70;2022.40;;;;;;4906460;29;20775;-79
2021/09/16 02:00:31;;;;;;;37.20;28.55;;;486.80;1996.80;;;;;;4908069;29;20024;-83
2021/09/16 02:02:57;;;;;;;44.95;28.92;;;487.00;1971.20;;;;;;4888927;29;20045;-78
2021/09/16 02:05:22;;;;;;;44.75;28.25;;;487.00;1971.20;;;;;;4916770;29;20039;-79
2021/09/16 02:07:48;;;;;;;41.50;28.83;;;487.20;1945.60;;;;;;4890459;29;20479;-78
2021/09/16 02:10:14;;;;;;;37.08;27.60;;;487.20;1945.60;;;;;;4908898;29;20043;-79
2021/09/16 02:12:40;;;;;;;42.22;31.13;;;512.00;1945.60;;;;;;4886085;29;20487;-89
2021/09/16 02:15:06;;;;;;;46.60;29.35;;;487.20;1971.20;;;;;;4887309;29;20029;-88
2021/09/16 02:17:32;;;;;;;42.17;31.42;;;487.30;1971.20;;;;;;4881724;29;20098;-79
2021/09/16 02:19:58;;;;;;;54.22;35.13;;;487.10;1971.20;;;;;;4887205;29;20026;-78
2021/09/16 02:22:23;;;;;;;54.50;38.70;;;487.10;1996.80;;;;;;4892270;29;20165;-79
2021/09/16 02:24:49;;;;;;;53.30;35.53;;;487.30;1945.60;;;;;;4887214;29;20021;-80
2021/09/16 02:27:15;;;;;;;39.58;27.33;;;487.10;1971.20;;;;;;4886553;29;20028;-79
2021/09/16 02:29:41;;;;;;;34.53;23.25;;;487.00;1996.80;;;;;;4898351;29;20092;-83
2021/09/16 02:32:07;;;;;;;30.35;20.83;;;487.00;1996.80;;;;;;4890251;29;20081;-79
2021/09/16 02:34:32;;;;;;;28.23;17.45;;;487.10;1996.80;;;;;;4886055;29;20044;-85
2021/09/16 02:36:58;;;;;;;31.83;17.23;;;487.00;1996.80;;;;;;4890548;29;20025;-79
2021/09/16 02:39:24;;;;;;;28.75;15.82;;;487.00;2022.40;;;;;;4883910;29;20432;-78
2021/09/16 02:41:50;;;;;;;23.75;13.57;;;486.90;2022.40;;;;;;4891188;29;20024;-78
2021/09/16 02:44:15;;;;;;;20.27;13.50;;;487.00;2022.40;;;;;;4892245;29;20029;-79
2021/09/16 02:46:41;;;;;;;21.05;13.70;;;487.00;2022.40;;;;;;4890456;29;20464;-78
2021/09/16 02:49:07;;;;;;;18.60;12.43;;;487.00;2022.40;;;;;;4896661;29;20024;-78
2021/09/16 02:51:33;;;;;;;20.27;11.80;;;487.10;2022.40;;;;;;4891577;29;20095;-86
2021/09/16 02:53:58;;;;;;;18.70;10.00;;;487.10;2022.40;;;;;;4890117;29;20476;-79
2021/09/16 02:56:24;;;;;;;13.70;9.98;;;487.20;2022.40;;;;;;4883594;29;20028;-79
2021/09/16 02:58:50;;;;;;;20.90;11.00;;;512.00;1996.80;;;;;;4890786;29;20017;-83
2021/09/16 03:01:15;;;;;;;16.83;10.43;;;512.30;1971.20;;;;;;4891808;29;20411;-79
2021/09/16 03:03:41;;;;;;;16.58;10.00;;;512.60;1945.60;;;;;;4884091;29;20045;-78
2021/09/16 03:06:07;;;;;;;14.07;9.88;;;512.70;1945.60;;;;;;4891663;29;20048;-78
2021/09/16 03:08:33;;;;;;;18.58;10.07;;;512.80;1945.60;;;;;;4884186;29;20444;-79
2021/09/16 03:10:58;;;;;;;15.38;10.70;;;512.90;1971.20;;;;;;4891900;29;20830;-78
2021/09/16 03:13:24;;;;;;;17.42;9.75;;;512.80;1996.80;;;;;;4893810;29;20453;-84
2021/09/16 03:15:50;;;;;;;20.30;10.40;;;512.90;1971.20;;;;;;4893094;29;20040;-76
2021/09/16 03:18:15;;;;;;;19.90;11.57;;;537.60;1996.80;;;;;;4908021;29;20040;-83
2021/09/16 03:20:41;;;;;;;21.15;11.18;;;537.70;2022.40;;;;;;4910886;29;20132;-82
2021/09/16 03:23:07;;;;;;;16.55;10.10;;;537.80;2022.40;;;;;;4899049;29;20111;-75
2021/09/16 03:25:32;;;;;;;22.83;11.88;;;537.80;2022.40;;;;;;4892275;29;20039;-76
2021/09/16 03:27:58;;;;;;;17.85;11.43;;;537.60;1996.80;;;;;;4893477;29;20031;-76
2021/09/16 03:30:24;;;;;;;21.08;11.52;;;537.60;1996.80;;;;;;4910808;29;20059;-76
2021/09/16 03:32:50;;;;;;;22.80;11.20;;;537.60;1996.80;;;;;;4892539;29;20438;-76
2021/09/16 03:35:15;;;;;;;21.90;11.68;;;512.80;2022.40;;;;;;4910449;29;20099;-83
2021/09/16 03:37:41;;;;;;;22.05;11.93;;;512.40;2048.00;;;;;;4907919;29;20024;-76
2021/09/16 03:40:08;;;;;;;16.27;10.52;;;512.20;2073.60;;;;;;4893022;29;20443;-80
2021/09/16 03:42:35;;;;;;;16.75;11.25;;;512.10;2073.60;;;;;;4907570;29;20028;-86
2021/09/16 03:45:01;;;;;;;17.23;10.23;;;512.10;2048.00;;;;;;4890882;29;20108;-77
2021/09/16 03:47:27;;;;;;;33.70;12.80;;;512.10;2073.60;;;;;;4893012;29;20020;-79
2021/09/16 03:49:52;;;;;;;16.67;11.88;;;512.00;2099.20;;;;;;4909053;29;20439;-77
2021/09/16 03:52:18;;;;;;;20.30;11.48;;;487.30;2099.20;;;;;;4891017;29;20051;-77
2021/09/16 03:54:44;;;;;;;22.52;12.38;;;487.20;2099.20;;;;;;4892599;29;20032;-76
2021/09/16 03:57:10;;;;;;;19.25;11.48;;;487.20;2124.80;;;;;;4891991;29;20045;-77
2021/09/16 03:59:35;;;;;;;19.35;11.45;;;512.20;2073.60;;;;;;4908699;29;20024;-76
2021/09/16 04:02:01;;;;;;;20.92;11.32;;;512.30;2048.00;;;;;;4892670;29;20127;-76
2021/09/16 04:04:27;;;;;;;21.88;11.27;;;512.30;2073.60;;;;;;4891144;29;20028;-85
2021/09/16 04:06:53;;;;;;;21.80;10.98;;;512.30;2073.60;;;;;;4910476;29;20455;-77
2021/09/16 04:09:18;;;;;;;22.30;10.68;;;512.60;2022.40;;;;;;4907963;29;20035;-77
2021/09/16 04:11:44;;;;;;;16.02;10.85;;;512.60;2048.00;;;;;;4909393;29;20051;-77
2021/09/16 04:14:10;;;;;;;22.80;11.25;;;512.80;2022.40;;;;;;4908342;29;20020;-76
2021/09/16 04:16:36;;;;;;;18.98;9.73;;;512.90;2022.40;;;;;;4891355;29;20028;-76
2021/09/16 04:19:01;;;;;;;18.02;10.38;;;512.90;2022.40;;;;;;4902858;29;20081;-77
2021/09/16 04:21:27;;;;;;;18.73;10.02;;;512.90;2022.40;;;;;;4896288;29;20039;-76
2021/09/16 04:23:53;;;;;;;16.52;10.30;;;512.90;2022.40;;;;;;4907171;29;20371;-76
2021/09/16 04:26:18;;;;;;;20.15;10.38;;;512.50;2073.60;;;;;;4909389;29;20088;-76
2021/09/16 04:28:44;;;;;;;20.40;10.88;;;512.50;2048.00;;;;;;4909164;29;20044;-75
2021/09/16 04:31:10;;;;;;;19.70;10.38;;;512.30;2073.60;;;;;;4890740;29;20044;-76
2021/09/16 04:33:36;;;;;;;16.58;10.75;;;512.40;2073.60;;;;;;4908684;29;20024;-88
2021/09/16 04:36:02;;;;;;;22.05;11.77;;;512.50;2073.60;;;;;;4905815;29;20116;-77
2021/09/16 04:38:28;;;;;;;20.55;10.55;;;512.30;2099.20;;;;;;4907744;29;20055;-79
2021/09/16 04:40:54;;;;;;;20.90;11.38;;;512.30;2099.20;;;;;;4907953;29;20056;-78
2021/09/16 04:43:19;;;;;;;21.67;11.13;;;512.20;2124.80;;;;;;4907071;29;20038;-79
2021/09/16 04:45:45;;;;;;;16.95;10.85;;;512.10;2124.80;;;;;;4908833;29;20061;-78
2021/09/16 04:48:11;;;;;;;23.40;11.88;;;512.10;2124.80;;;;;;4907723;29;20373;-78
2021/09/16 04:50:37;;;;;;;19.75;9.77;;;512.10;2124.80;;;;;;4889848;29;20542;-78
2021/09/16 04:53:05;;;;;;;21.90;11.05;;;512.00;2150.40;;;;;;4908819;29;20106;-78
2021/09/16 04:55:31;;;;;;;21.70;10.05;;;512.00;2150.40;;;;;;4908834;29;20024;-78
2021/09/16 04:57:56;;;;;;;17.73;10.82;;;512.20;2124.80;;;;;;4907845;29;20024;-87
2021/09/16 05:00:22;;;;;;;20.08;10.75;;;512.40;2124.80;;;;;;4908417;29;20055;-79
2021/09/16 05:02:48;;;;;;;21.20;11.45;;;512.30;2124.80;;;;;;4906642;29;20029;-79
2021/09/16 05:05:14;;;;;;;17.35;11.30;;;512.50;2099.20;;;;;;4893698;29;20043;-79
2021/09/16 05:07:39;;;;;;;19.17;10.95;;;512.50;2124.80;;;;;;4893008;29;20024;-78
2021/09/16 05:10:06;;;;;;;14.20;9.55;;;512.20;2124.80;;;;;;4891759;29;20470;-78
2021/09/16 05:12:32;;;;;;;24.90;10.98;;;512.30;2124.80;;;;;;4907096;29;20044;-78
2021/09/16 05:14:58;;;;;;;16.05;10.13;;;512.20;2150.40;;;;;;4909387;29;20021;-81
2021/09/16 05:17:25;;;;;;;18.67;10.80;;;512.30;2150.40;;;;;;4889715;29;20033;-77
2021/09/16 05:19:51;;;;;;;16.15;9.50;;;512.30;2150.40;;;;;;4908399;29;20020;-77
2021/09/16 05:22:17;;;;;;;20.00;11.25;;;512.30;2124.80;;;;;;4907641;29;20021;-84
2021/09/16 05:24:42;;;;;;;17.15;11.05;;;512.20;2150.40;;;;;;4904206;29;20123;-84
2021/09/16 05:27:08;;;;;;;21.00;10.45;;;512.00;2176.00;;;;;;4891680;29;20046;-91
2021/09/16 05:29:34;;;;;;;22.85;11.00;;;512.20;2176.00;;;;;;4907153;29;20399;-78
2021/09/16 05:32:01;;;;;;;18.30;10.60;;;512.10;2176.00;;;;;;4907003;29;20020;-78
2021/09/16 05:34:27;;;;;;;15.70;9.80;;;487.30;2201.60;;;;;;4907687;29;20506;-78
2021/09/16 05:36:53;;;;;;;17.83;10.85;;;512.30;2176.00;;;;;;4907017;29;20032;-78
2021/09/16 05:39:19;;;;;;;22.92;11.50;;;512.30;2150.40;;;;;;4909036;29;20024;-83
2021/09/16 05:41:45;;;;;;;23.23;10.88;;;512.50;2176.00;;;;;;4917016;29;20087;-78
2021/09/16 05:44:11;;;;;;;18.58;11.48;;;512.60;2150.40;;;;;;4900211;29;20422;-86
2021/09/16 05:46:36;;;;;;;23.80;11.93;;;512.30;2176.00;;;;;;4917055;29;20059;-84
2021/09/16 05:49:03;;;;;;;23.52;11.48;;;512.20;2201.60;;;;;;4900486;29;20024;-83
2021/09/16 05:51:28;;;;;;;20.80;11.52;;;512.20;2201.60;;;;;;4916862;29;20040;-78
2021/09/16 05:53:54;;;;;;;32.17;12.50;;;512.30;2201.60;;;;;;4916882;29;20033;-83
2021/09/16 05:56:20;;;;;;;46.10;13.63;;;512.20;2201.60;;;;;;4899957;29;20020;-85
2021/09/16 05:58:46;;;;;;;33.83;12.60;;;512.30;2227.20;;;;;;4916659;29;20027;-81
2021/09/16 06:01:12;;;;;;;22.52;12.68;;;512.50;2201.60;;;;;;4900120;29;20390;-86
2021/09/16 06:03:37;;;;;;;29.95;16.73;;;512.60;2201.60;;;;;;4927936;29;20091;-81
2021/09/16 06:06:03;;;;;;;25.98;13.50;;;512.50;2201.60;;;;;;4919671;29;20031;-79
2021/09/16 06:08:29;;;;;;;27.65;15.20;;;512.50;2227.20;;;;;;4920497;29;20107;-85
2021/09/16 06:10:54;;;;;;;26.20;14.52;;;512.60;2227.20;;;;;;4915529;29;20036;-79
2021/09/16 06:13:20;;;;;;;26.90;15.13;;;512.60;2227.20;;;;;;4920435;29;20494;-85
2021/09/16 06:15:46;;;;;;;28.98;13.60;;;512.60;2227.20;;;;;;4920736;29;20048;-85
2021/09/16 06:18:12;;;;;;;22.60;12.23;;;512.80;2227.20;;;;;;4912892;29;20024;-78
2021/09/16 06:20:37;;;;;;;19.70;12.95;;;537.60;2227.20;;;;;;4927668;29;20054;-89
2021/09/16 06:23:03;;;;;;;24.85;13.88;;;537.70;2201.60;;;;;;4922393;29;20032;-79
2021/09/16 06:25:29;;;;;;;17.05;13.38;;;537.80;2201.60;;;;;;4939408;29;20030;-77
2021/09/16 06:27:56;;;;;;;25.77;15.63;;;537.90;2201.60;;;;;;4930366;29;20028;-78
2021/09/16 06:30:22;;;;;;;24.20;16.38;;;537.90;2176.00;;;;;;4924831;29;20024;-81
2021/09/16 06:32:49;;;;;;;33.55;20.98;;;538.10;2176.00;;;;;;4903441;29;20226;-84
2021/09/16 06:35:15;;;;;;;44.20;26.73;;;538.00;2201.60;;;;;;4903502;29;20033;-79
2021/09/16 06:37:41;;;;;;;40.10;25.08;;;538.10;2201.60;;;;;;4920273;29;20024;-77
2021/09/16 06:40:08;;;;;;;28.08;17.17;;;538.30;2176.00;;;;;;4920443;29;20032;-81
2021/09/16 06:42:35;;;;;;;22.30;15.52;;;538.30;2176.00;;;;;;4926800;29;20036;-81
2021/09/16 06:45:01;;;;;;;27.00;15.55;;;538.10;2201.60;;;;;;4920135;29;20103;-77
2021/09/16 06:47:26;;;;;;;28.60;16.52;;;538.20;2201.60;;;;;;4920112;29;20099;-77
2021/09/16 06:49:52;;;;;;;31.33;15.25;;;538.20;2227.20;;;;;;4920106;29;20036;-89
2021/09/16 06:52:22;;;;;;;34.85;15.43;;;538.40;2201.60;;;;;;4920166;29;20028;-92
2021/09/16 06:54:49;;;;;;;24.10;14.25;;;538.40;2227.20;;;;;;4920235;29;20027;-92
2021/09/16 06:57:15;;;;;;;26.25;14.80;;;538.50;2201.60;;;;;;4920014;29;20036;-85
2021/09/16 06:59:40;;;;;;;27.55;14.65;;;563.30;2201.60;;;;;;4903411;29;20028;-78
2021/09/16 07:02:06;;;;;;;26.77;14.85;;;563.60;2176.00;;;;;;4912368;29;20540;-77
2021/09/16 07:04:32;;;;;;;25.73;14.93;;;563.60;2176.00;;;;;;4929286;29;20032;-78
2021/09/16 07:07:04;;;;;;;24.83;14.13;;;563.60;2176.00;;;;;;4902995;29;20035;-80
2021/09/16 07:09:36;;;;;;;27.52;14.15;;;563.70;2176.00;;;;;;4903287;29;20020;-84
2021/09/16 07:12:02;;;;;;;28.95;16.20;;;563.90;2176.00;;;;;;4909158;29;20044;-79
2021/09/16 07:14:30;;;;;;;37.58;18.38;;;563.90;2176.00;;;;;;4901727;29;20438;-82
2021/09/16 07:16:56;;;;;;;30.70;15.43;;;563.90;2201.60;;;;;;4919437;29;20020;-86
2021/09/16 07:19:22;;;;;;;24.23;16.70;;;564.00;2176.00;;;;;;4913288;29;20031;-80
2021/09/16 07:21:48;;;;;;;30.60;19.23;;;564.10;2176.00;;;;;;4921067;29;20051;-81
2021/09/16 07:24:14;;;;;;;27.85;19.05;;;564.00;2201.60;;;;;;4938336;29;20031;-80
2021/09/16 07:26:41;;;;;;;29.38;17.55;;;564.10;2201.60;;;;;;4937974;29;20020;-78
2021/09/16 07:29:07;;;;;;;32.20;17.63;;;564.10;2176.00;;;;;;4921204;29;20027;-84
2021/09/16 07:31:33;;;;;;;25.52;17.05;;;564.10;2150.40;;;;;;4908084;29;20043;-81
2021/09/16 07:33:59;;;;;;;28.98;16.13;;;588.90;2150.40;;;;;;4917608;29;20051;-80
2021/09/16 07:36:26;;;;;;;30.02;16.83;;;589.10;2124.80;;;;;;4913199;29;20082;-79
2021/09/16 07:38:52;;;;;;;34.30;18.33;;;589.20;2124.80;;;;;;4937850;29;20026;-85
2021/09/16 07:41:18;;;;;;;30.02;16.95;;;589.30;2150.40;;;;;;4921434;29;20024;-78
2021/09/16 07:43:43;;;;;;;27.13;16.13;;;589.30;2150.40;;;;;;4938013;29;20027;-77
2021/09/16 07:46:09;;;;;;;28.40;19.10;;;589.30;2150.40;;;;;;4921097;29;20027;-79
2021/09/16 07:48:35;;;;;;;32.70;18.40;;;589.40;2124.80;;;;;;4921064;29;20466;-84
2021/09/16 07:51:01;;;;;;;32.90;15.85;;;589.60;2099.20;;;;;;4937921;29;20114;-86
2021/09/16 07:53:29;;;;;;;23.52;15.98;;;589.60;2124.80;;;;;;4938011;29;20027;-84
2021/09/16 07:55:55;;;;;;;30.48;15.50;;;589.70;2099.20;;;;;;4937820;29;20016;-80
2021/09/16 07:58:21;;;;;;;24.10;14.88;;;589.70;2073.60;;;;;;4921030;29;20127;-79
2021/09/16 08:00:47;;;;;;;25.80;14.95;;;614.40;2048.00;;;;;;4907585;29;20546;-88
2021/09/16 08:03:12;;;;;;;26.33;15.90;;;614.50;2048.00;;;;;;4937783;29;20032;-88
2021/09/16 08:05:38;;;;;;;27.15;15.80;;;614.50;2022.40;;;;;;4937653;29;20036;-79
2021/09/16 08:08:04;;;;;;;23.65;14.70;;;614.70;1996.80;;;;;;4937482;29;20426;-83
2021/09/16 08:10:30;;;;;;;23.58;14.30;;;614.80;1996.80;;;;;;4920265;29;20147;-82
2021/09/16 08:12:56;;;;;;;20.80;13.68;;;614.90;1971.20;;;;;;4937121;29;20127;-82
2021/09/16 08:15:21;;;;;;;20.13;14.02;;;615.10;1945.60;;;;;;4937417;29;20470;-79
2021/09/16 08:17:47;;;;;;;17.58;12.23;;;615.30;1945.60;;;;;;4935244;29;20024;-85
2021/09/16 08:20:14;;;;;;;19.23;11.45;;;640.10;1920.00;;;;;;4921970;29;20381;-79
2021/09/16 08:22:39;;;;;;;20.08;11.98;;;640.20;1894.40;;;;;;4920191;29;20082;-82
2021/09/16 08:25:08;;;;;;;17.40;11.20;;;640.40;1868.80;;;;;;4918886;29;20115;-81
2021/09/16 08:27:35;;;;;;;16.38;11.68;;;640.50;1817.60;;;;;;4937058;29;20031;-84
2021/09/16 08:30:01;;;;;;;15.70;11.55;;;640.60;1817.60;;;;;;4919847;29;20035;-84
2021/09/16 08:32:27;;;;;;;18.83;11.18;;;640.70;1792.00;;;;;;4919549;29;20079;-88
2021/09/16 08:34:54;;;;;;;16.27;11.25;;;640.80;1792.00;;;;;;4936080;29;20148;-80
2021/09/16 08:37:20;;;;;;;15.25;10.98;;;640.90;1817.60;;;;;;4936792;29;20028;-82
2021/09/16 08:39:46;;;;;;;21.08;11.68;;;665.70;1843.20;;;;;;4920068;29;20031;-87
2021/09/16 08:42:12;;;;;;;15.95;10.85;;;665.90;1766.40;;;;;;4936956;29;20054;-91
2021/09/16 08:44:42;;;;;;;17.77;11.23;;;666.00;1715.20;;;;;;4936607;29;20099;-89
2021/09/16 08:47:08;;;;;;;15.70;10.45;;;666.20;1766.40;;;;;;4920003;29;20024;-84
2021/09/16 08:49:34;;;;;;;15.02;9.60;;;666.30;1689.60;;;;;;4936725;29;20099;-82
2021/09/16 08:52:00;;;;;;;16.33;9.98;;;666.50;1664.00;;;;;;4918721;29;20135;-82
2021/09/16 08:54:27;;;;;;;19.83;8.77;;;691.30;1664.00;;;;;;4936391;29;20046;-79
2021/09/16 08:57:04;;;;;;;19.67;9.18;;;691.40;1587.20;;;;;;5070362;28;20383;-78
2021/09/16 08:59:30;;;;;;;15.68;6.90;;;691.60;1612.80;;;;;;5070210;28;20025;-89
2021/09/16 09:01:56;;;;;;;16.83;6.68;;;691.80;1612.80;;;;;;5069013;28;20075;-77
2021/09/16 09:04:22;;;;;;;15.43;7.18;;;692.00;1561.60;;;;;;5066865;28;20044;-78
2021/09/16 09:07:06;;;;;;;13.50;7.65;;;716.90;1612.80;;;;;;5049499;28;20087;-79
2021/09/16 09:09:32;;;;;;;7.68;5.53;;;717.00;1510.40;;;;;;5063792;28;20028;-92
2021/09/16 09:12:01;;;;;;;12.35;6.70;;;717.10;1510.40;;;;;;5060833;28;20130;-79
2021/09/16 09:14:40;;;;;;;7.65;5.15;;;717.10;1484.80;;;;;;5069989;28;20388;-80
2021/09/16 09:17:22;;;;;;;8.57;5.95;;;717.20;1510.40;;;;;;5048720;28;20568;-80
2021/09/16 09:19:50;;;;;;;10.82;5.95;;;717.30;1510.40;;;;;;5049406;28;20431;-80
2021/09/16 09:22:17;;;;;;;11.05;5.38;;;717.40;1484.80;;;;;;5036785;28;20105;-81
2021/09/16 09:24:46;;;;;;;13.38;5.82;;;717.40;1459.20;;;;;;5050381;28;20473;-79
2021/09/16 09:27:39;;;;;;;13.98;5.47;;;717.50;1459.20;;;;;;5049012;28;20037;-79
2021/09/16 09:30:08;;;;;;;13.93;5.93;;;717.50;1408.00;;;;;;5027268;28;20432;-82
2021/09/16 09:32:55;;;;;;;12.68;5.57;;;717.60;1408.00;;;;;;5011701;28;20121;-79
2021/09/16 09:35:32;;;;;;;11.65;5.88;;;717.60;1459.20;;;;;;5027676;28;20116;-79
2021/09/16 09:38:01;;;;;;;11.38;6.70;;;717.60;1510.40;;;;;;5028212;28;20026;-76
2021/09/16 09:40:33;;;;;;;20.90;9.48;;;717.70;1561.60;;;;;;5028141;28;20036;-87
2021/09/16 09:43:29;;;;;;;17.08;7.43;;;717.70;1587.20;;;;;;5044485;28;20026;-77
2021/09/16 09:46:00;;;;;;;16.45;7.32;;;742.40;1587.20;;;;;;5011341;28;20025;-78
2021/09/16 09:48:26;;;;;;;15.00;6.25;;;742.40;1561.60;;;;;;5010982;28;20029;-80
2021/09/16 09:50:54;;;;;;;11.82;6.38;;;742.60;1510.40;;;;;;5011751;28;20080;-81
2021/09/16 09:53:20;;;;;;;19.02;7.28;;;742.80;1536.00;;;;;;5011163;28;20042;-84
2021/09/16 09:55:46;;;;;;;14.25;5.25;;;742.90;1536.00;;;;;;5027472;28;20058;-77
2021/09/16 09:58:12;;;;;;;13.18;5.60;;;743.00;1433.60;;;;;;5027619;28;20037;-78
2021/09/16 10:00:38;;;;;;;17.52;6.47;;;743.00;1433.60;;;;;;5027142;28;20053;-79
2021/09/16 10:03:05;;;;;;;18.65;6.43;;;743.10;1459.20;;;;;;5027566;28;20521;-79
2021/09/16 10:05:30;;;;;;;16.08;5.55;;;743.20;1459.20;;;;;;5011186;28;20022;-80
2021/09/16 10:07:59;;;;;;;24.50;7.20;;;743.20;1459.20;;;;;;5035063;28;20056;-78
2021/09/16 10:10:33;;;;;;;16.85;6.75;;;743.00;1510.40;;;;;;5035835;28;20032;-76
2021/09/16 10:12:58;;;;;;;19.77;6.88;;;743.00;1536.00;;;;;;5036133;28;20025;-81
2021/09/16 10:15:24;;;;;;;26.58;10.45;;;743.00;1561.60;;;;;;5035770;28;20060;-78
2021/09/16 10:17:53;;;;;;;21.67;7.57;;;743.00;1587.20;;;;;;5035920;28;20021;-78
2021/09/16 10:20:21;;;;;;;19.48;6.22;;;742.90;1561.60;;;;;;5035704;28;20238;-79
2021/09/16 10:22:50;;;;;;;19.77;6.50;;;742.90;1561.60;;;;;;5034305;28;20025;-78
2021/09/16 10:25:19;;;;;;;25.95;7.40;;;742.90;1536.00;;;;;;5034190;28;20117;-78
2021/09/16 10:28:08;;;;;;;18.17;7.13;;;743.00;1536.00;;;;;;5034412;28;20041;-77
2021/09/16 10:30:38;;;;;;;16.63;7.22;;;743.20;1484.80;;;;;;5033488;28;20037;-78
2021/09/16 10:33:18;;;;;;;18.42;6.93;;;743.20;1484.80;;;;;;5033523;28;20038;-83
2021/09/16 10:35:58;;;;;;;19.10;6.38;;;768.30;1433.60;;;;;;5033346;28;20509;-77
2021/09/16 10:38:29;;;;;;;21.88;7.28;;;768.50;1382.40;;;;;;5033370;28;20040;-77
2021/09/16 10:41:22;;;;;;;22.23;7.53;;;768.90;1331.20;;;;;;5033206;28;20038;-79
2021/09/16 10:44:00;;;;;;;15.55;6.75;;;793.70;1408.00;;;;;;5033093;28;20578;-79
2021/09/16 10:46:40;;;;;;;22.25;7.50;;;793.80;1356.80;;;;;;5016497;28;20494;-79
2021/09/16 10:49:43;;;;;;;9.25;5.25;;;794.00;1331.20;;;;;;5033032;28;20030;-78
2021/09/16 10:52:09;;;;;;;17.40;6.00;;;794.20;1280.00;;;;;;4952675;29;20533;-78
2021/09/16 10:54:39;;;;;;;17.38;5.60;;;794.50;1280.00;;;;;;4954622;29;20042;-77
2021/09/16 10:57:06;;;;;;;11.90;6.00;;;819.20;1203.20;;;;;;4950345;28;20083;-76
2021/09/16 10:59:50;;;;;;;12.38;6.10;;;819.30;1228.80;;;;;;4953782;29;20031;-77
2021/09/16 11:02:23;;;;;;;14.50;5.22;;;819.30;1254.40;;;;;;4954123;29;20039;-76
2021/09/16 11:04:54;;;;;;;15.80;6.45;;;819.40;1203.20;;;;;;4952009;29;20055;-79
2021/09/16 11:07:35;;;;;;;17.38;6.45;;;819.50;1228.80;;;;;;4954296;29;20126;-77
2021/09/16 11:10:16;;;;;;;15.85;7.03;;;819.60;1254.40;;;;;;4954464;29;20139;-78
2021/09/16 11:12:56;;;;;;;16.27;7.28;;;819.30;1254.40;;;;;;4954754;29;20031;-81
2021/09/16 11:15:28;;;;;;;20.90;9.18;;;819.60;1280.00;;;;;;4954427;29;20047;-79
2021/09/16 11:18:04;;;;;;;25.25;8.05;;;819.60;1280.00;;;;;;4954000;28;20368;-77
2021/09/16 11:20:30;;;;;;;23.38;8.40;;;819.60;1305.60;;;;;;4954102;29;20028;-83
2021/09/16 11:22:56;;;;;;;18.17;8.05;;;819.80;1280.00;;;;;;4954307;29;20053;-81
2021/09/16 11:25:22;;;;;;;21.52;8.40;;;819.80;1280.00;;;;;;4954005;29;20047;-78
2021/09/16 11:27:53;;;;;;;24.17;8.57;;;820.00;1280.00;;;;;;4953998;28;20384;-80
2021/09/16 11:30:20;;;;;;;20.25;6.78;;;819.90;1280.00;;;;;;5013502;28;20113;-81
2021/09/16 11:32:46;;;;;;;26.92;7.22;;;819.90;1254.40;;;;;;5034012;28;20060;-78
2021/09/16 11:35:14;;;;;;;25.92;7.90;;;820.00;1254.40;;;;;;5034307;28;20067;-77
2021/09/16 11:37:40;;;;;;;24.65;7.78;;;844.80;1280.00;;;;;;5033965;28;20052;-76
2021/09/16 11:40:09;;;;;;;18.42;6.93;;;820.10;1228.80;;;;;;5033556;28;20079;-76
2021/09/16 11:42:37;;;;;;;23.00;7.45;;;844.80;1280.00;;;;;;5032693;28;20369;-79
2021/09/16 11:45:12;;;;;;;20.05;6.85;;;844.80;1254.40;;;;;;5034516;28;20025;-78
2021/09/16 11:47:47;;;;;;;17.75;7.20;;;844.90;1254.40;;;;;;5032286;28;20492;-82
2021/09/16 11:50:29;;;;;;;21.50;7.15;;;844.90;1280.00;;;;;;5033686;28;20056;-86
2021/09/16 11:52:57;;;;;;;20.27;7.20;;;844.90;1228.80;;;;;;5036366;28;20026;-77
2021/09/16 11:55:22;;;;;;;26.63;6.28;;;844.90;1228.80;;;;;;5049762;28;20063;-78
2021/09/16 11:58:02;;;;;;;23.63;7.35;;;845.10;1228.80;;;;;;5053606;28;20022;-83
2021/09/16 12:00:37;;;;;;;20.38;7.18;;;845.10;1228.80;;;;;;5038032;28;20037;-83
2021/09/16 12:03:04;;;;;;;;;;;845.10;1228.80;;;;;;5034648;28;20036;-84
2021/09/16 12:05:35;;;;;;;22.02;7.45;;;844.90;1254.40;;;;;;5033864;28;19996;-84